Time;durP1;ratioP1;P1;durP2;ratioP2;P2;SDS_P1;SDS_P2;PMS_P1;PMS_P2;Temp;Humidity;BMP_temperature;BMP_pressure;BME280_temperature;BME280_humidity;BME280_pressure;Samples;Min_cycle;Max_cycle;Signal;HPM_P1;HPM_P2
2022/11/17 00:03:37;;;;;;;5.25;2.55;;;15.70;76.90;;;;;;10449843;28;20112;-62
2022/11/17 00:08:38;;;;;;;3.13;1.73;;;15.70;76.90;;;;;;10447708;28;20447;-62
2022/11/17 00:24:17;;;;;;;3.97;1.70;;;15.70;76.70;;;;;;10444164;28;20404;-61
2022/11/17 00:29:18;;;;;;;3.45;1.80;;;15.70;76.80;;;;;;10448152;28;20025;-63
2022/11/17 00:34:21;;;;;;;2.42;1.40;;;15.70;76.70;;;;;;10449493;28;20076;-62
2022/11/17 00:39:23;;;;;;;3.33;1.83;;;15.70;76.60;;;;;;10448097;28;20087;-63
2022/11/17 00:44:25;;;;;;;2.88;1.25;;;15.80;76.40;;;;;;10448205;28;20041;-62
2022/11/17 00:49:25;;;;;;;2.33;1.45;;;15.80;76.10;;;;;;10447546;28;20036;-62
2022/11/17 00:54:26;;;;;;;2.90;1.55;;;15.80;76.00;;;;;;10448995;28;20631;-62
2022/11/17 00:59:28;;;;;;;3.17;2.25;;;15.80;76.10;;;;;;10448524;28;20435;-62
2022/11/17 01:04:29;;;;;;;2.17;1.23;;;15.80;76.20;;;;;;10448491;28;20213;-62
2022/11/17 01:09:29;;;;;;;3.10;1.65;;;15.70;76.20;;;;;;10448308;28;20063;-62
2022/11/17 01:14:31;;;;;;;2.58;1.70;;;15.70;76.30;;;;;;10428596;28;20147;-63
2022/11/17 01:19:32;;;;;;;2.88;1.30;;;15.70;76.40;;;;;;10446747;28;20020;-62
2022/11/17 01:24:32;;;;;;;3.20;1.50;;;15.70;76.30;;;;;;10447791;28;20033;-63
2022/11/17 01:29:33;;;;;;;2.42;1.20;;;15.80;75.70;;;;;;10447662;28;20108;-62
2022/11/17 01:34:34;;;;;;;2.88;1.35;;;15.90;75.50;;;;;;10445713;28;20067;-62
2022/11/17 01:39:34;;;;;;;2.63;1.13;;;15.90;75.30;;;;;;10447469;28;20115;-62
2022/11/17 01:44:35;;;;;;;2.47;1.30;;;15.90;75.30;;;;;;10447054;28;20567;-62
2022/11/17 01:49:36;;;;;;;2.58;1.35;;;15.90;75.50;;;;;;10446748;28;20029;-62
2022/11/17 01:54:40;;;;;;;2.42;1.30;;;15.80;75.50;;;;;;10447031;28;20021;-62
2022/11/17 01:59:47;;;;;;;1.65;1.10;;;15.80;75.50;;;;;;10445658;28;20025;-62
2022/11/17 02:05:00;;;;;;;3.88;2.05;;;15.80;75.50;;;;;;10445533;28;20419;-63
2022/11/17 02:10:03;;;;;;;2.00;1.10;;;15.90;75.60;;;;;;10445781;28;20021;-62
2022/11/17 02:15:05;;;;;;;2.80;1.00;;;15.80;75.40;;;;;;10445292;28;20017;-61
2022/11/17 02:20:50;;;;;;;2.22;1.35;;;15.90;75.50;;;;;;10445288;28;20464;-63
2022/11/17 02:26:26;;;;;;;2.10;1.20;;;15.80;75.50;;;;;;10442388;28;20551;-62
2022/11/17 02:32:03;;;;;;;2.45;1.35;;;15.80;75.60;;;;;;10437779;28;20017;-62
2022/11/17 02:37:25;;;;;;;2.10;1.23;;;15.70;75.70;;;;;;10443377;28;20496;-61
2022/11/17 02:48:31;;;;;;;2.47;1.25;;;15.70;75.90;;;;;;10406941;28;20365;-62
2022/11/17 02:53:33;;;;;;;2.25;1.52;;;15.70;76.00;;;;;;10443548;28;20029;-62
2022/11/17 02:58:33;;;;;;;5.72;1.67;;;15.70;76.00;;;;;;10444244;28;20029;-62
2022/11/17 03:03:59;;;;;;;3.17;1.60;;;15.80;75.60;;;;;;10450544;28;20456;-63
2022/11/17 03:09:23;;;;;;;1.75;1.00;;;15.90;75.20;;;;;;10441385;28;20028;-63
2022/11/17 03:14:51;;;;;;;4.20;1.00;;;15.90;75.10;;;;;;10435778;28;20017;-62
2022/11/17 03:20:05;;;;;;;1.95;1.00;;;15.80;75.20;;;;;;10451050;28;20029;-62
2022/11/17 03:25:12;;;;;;;1.52;1.05;;;15.80;75.30;;;;;;10451214;28;20102;-62
2022/11/17 03:30:15;;;;;;;2.05;0.70;;;15.80;75.40;;;;;;10450928;28;20380;-63
2022/11/17 03:35:21;;;;;;;1.65;0.85;;;15.80;75.50;;;;;;10450610;28;20128;-63
2022/11/17 03:40:28;;;;;;;2.45;0.95;;;15.80;75.50;;;;;;10451193;28;20013;-62
2022/11/17 03:45:33;;;;;;;1.27;0.93;;;15.80;75.50;;;;;;10450078;28;20025;-62
2022/11/17 03:50:38;;;;;;;1.45;0.75;;;15.70;75.40;;;;;;10451530;28;20021;-63
2022/11/17 03:56:08;;;;;;;1.92;0.70;;;15.80;75.50;;;;;;10433414;28;20021;-63
2022/11/17 04:01:09;;;;;;;2.70;0.87;;;15.90;75.20;;;;;;10417486;28;20039;-63
2022/11/17 04:06:10;;;;;;;2.05;0.85;;;15.90;74.60;;;;;;10449791;28;20454;-63
2022/11/17 04:16:29;;;;;;;4.13;0.95;;;15.90;74.80;;;;;;10449115;28;20383;-62
2022/11/17 04:21:30;;;;;;;1.15;0.63;;;15.80;74.90;;;;;;10448645;28;20048;-62
2022/11/17 04:31:50;;;;;;;2.17;0.65;;;15.80;75.10;;;;;;10448693;28;20063;-63
2022/11/17 04:36:51;;;;;;;2.38;0.70;;;15.80;75.20;;;;;;10444755;28;20083;-62
2022/11/17 04:42:01;;;;;;;2.10;0.98;;;15.80;75.20;;;;;;10448154;28;20119;-61
2022/11/17 04:47:02;;;;;;;1.85;1.05;;;15.80;75.20;;;;;;10447222;28;20023;-63
2022/11/17 04:52:03;;;;;;;1.80;0.80;;;15.80;75.20;;;;;;10443887;28;20701;-61
2022/11/17 04:57:04;;;;;;;2.30;0.82;;;15.70;75.20;;;;;;10443647;28;20107;-63
2022/11/17 05:02:05;;;;;;;2.08;0.73;;;15.80;75.20;;;;;;10446094;28;20061;-63
2022/11/17 05:07:07;;;;;;;1.88;0.80;;;15.80;75.10;;;;;;10446068;28;20045;-63
2022/11/17 05:17:27;;;;;;;;;;;16.00;74.20;;;;;;10444090;28;20029;-62
2022/11/17 05:27:47;;;;;;;1.43;0.67;;;15.90;74.40;;;;;;10446099;28;20033;-63
2022/11/17 05:32:47;;;;;;;0.50;0.50;;;15.90;74.70;;;;;;10417781;28;20052;-62
2022/11/17 05:37:48;;;;;;;1.10;0.70;;;15.80;74.70;;;;;;10444780;28;20029;-62
2022/11/17 05:42:49;;;;;;;1.17;0.50;;;15.80;74.70;;;;;;10445188;28;20779;-62
2022/11/17 05:47:49;;;;;;;2.13;0.70;;;15.90;74.70;;;;;;10445171;28;20453;-61
2022/11/17 05:52:50;;;;;;;1.95;0.70;;;15.80;74.70;;;;;;10444128;28;20052;-61
2022/11/17 05:57:52;;;;;;;4.90;1.50;;;15.80;75.40;;;;;;10445173;28;20108;-60
2022/11/17 06:02:57;;;;;;;5.20;1.00;;;16.00;75.40;;;;;;10445015;28;20495;-61
2022/11/17 06:07:58;;;;;;;5.40;1.08;;;16.10;75.40;;;;;;10429325;28;20106;-61
2022/11/17 06:12:59;;;;;;;4.72;0.88;;;16.20;75.50;;;;;;10445380;28;20034;-63
2022/11/17 06:18:22;;;;;;;9.30;1.45;;;16.20;75.70;;;;;;10446286;28;20029;-58
2022/11/17 06:23:26;;;;;;;7.57;1.67;;;16.20;75.70;;;;;;10444475;28;20033;-60
2022/11/17 06:28:28;;;;;;;10.80;1.40;;;16.20;75.70;;;;;;10442980;28;20368;-63
2022/11/17 06:33:30;;;;;;;9.07;1.50;;;16.10;75.90;;;;;;10444226;28;20093;-62
2022/11/17 06:38:32;;;;;;;10.27;1.40;;;16.10;76.10;;;;;;10447780;28;20021;-62
2022/11/17 06:43:33;;;;;;;12.00;1.85;;;16.10;76.20;;;;;;10452217;28;20024;-62
2022/11/17 06:48:34;;;;;;;19.33;3.47;;;15.90;77.00;;;;;;10484889;28;20024;-63
2022/11/17 06:53:35;;;;;;;21.92;3.38;;;16.00;76.70;;;;;;10451920;28;20017;-61
2022/11/17 06:58:39;;;;;;;20.70;3.13;;;16.00;76.60;;;;;;10450034;28;20474;-62
2022/11/17 07:03:43;;;;;;;24.35;3.75;;;15.90;77.20;;;;;;10451360;28;20041;-62
2022/11/17 07:08:45;;;;;;;20.35;4.00;;;15.90;77.30;;;;;;10451618;28;20104;-61
2022/11/17 07:13:45;;;;;;;15.10;3.33;;;16.00;77.00;;;;;;10447273;28;20021;-62
2022/11/17 07:18:46;;;;;;;9.40;2.72;;;15.90;76.80;;;;;;10446357;28;20096;-62
2022/11/17 07:23:46;;;;;;;18.30;3.05;;;15.80;77.00;;;;;;10448333;28;20029;-62
2022/11/17 07:28:47;;;;;;;14.95;2.67;;;15.80;77.20;;;;;;10449793;28;20061;-61
2022/11/17 07:33:49;;;;;;;11.95;2.15;;;15.80;77.20;;;;;;10483200;28;20123;-63
2022/11/17 07:38:49;;;;;;;13.40;2.38;;;15.80;77.20;;;;;;10451500;28;20364;-63
2022/11/17 07:43:50;;;;;;;10.20;2.75;;;15.70;77.10;;;;;;10432623;28;20072;-63
2022/11/17 07:48:54;;;;;;;13.25;2.22;;;15.70;77.00;;;;;;10448504;28;20640;-63
2022/11/17 07:53:54;;;;;;;7.00;1.70;;;15.70;77.00;;;;;;10449270;28;20025;-63
2022/11/17 07:58:55;;;;;;;6.22;1.80;;;15.60;77.00;;;;;;10456640;28;20104;-63
2022/11/17 08:03:56;;;;;;;8.52;1.50;;;15.60;76.90;;;;;;10450669;28;20054;-62
2022/11/17 08:08:57;;;;;;;6.43;1.52;;;15.60;76.90;;;;;;10432321;28;20025;-62
2022/11/17 08:13:58;;;;;;;6.38;1.73;;;15.60;77.00;;;;;;10448739;28;20709;-63
2022/11/17 08:18:58;;;;;;;8.25;1.48;;;15.60;76.90;;;;;;10449727;28;20041;-63
2022/11/17 08:23:59;;;;;;;8.52;2.05;;;15.60;77.00;;;;;;10451526;28;20086;-62
2022/11/17 08:29:00;;;;;;;8.10;1.85;;;15.70;76.70;;;;;;10459483;28;20137;-62
2022/11/17 08:34:01;;;;;;;6.18;1.35;;;15.70;76.40;;;;;;10437034;28;20061;-62
2022/11/17 08:39:03;;;;;;;5.88;1.17;;;15.70;76.40;;;;;;10447915;28;20049;-62
2022/11/17 08:44:04;;;;;;;8.10;1.85;;;15.70;76.40;;;;;;10449009;28;20032;-62
2022/11/17 08:49:04;;;;;;;7.47;1.85;;;15.80;76.40;;;;;;10448123;28;20037;-62
2022/11/17 08:54:05;;;;;;;6.82;1.30;;;15.80;76.10;;;;;;10446914;28;20104;-64
2022/11/17 08:59:06;;;;;;;8.02;1.48;;;15.90;76.50;;;;;;10446913;28;20472;-62
2022/11/17 09:04:06;;;;;;;6.35;1.80;;;16.00;76.50;;;;;;10436212;28;20506;-63
2022/11/17 09:09:07;;;;;;;4.38;0.80;;;16.00;76.50;;;;;;10430330;28;20663;-64
2022/11/17 09:14:08;;;;;;;4.22;1.27;;;16.00;76.10;;;;;;10445719;28;20024;-64
2022/11/17 09:19:08;;;;;;;6.22;1.15;;;16.00;76.30;;;;;;10442832;28;20104;-61
2022/11/17 09:24:10;;;;;;;6.03;1.40;;;16.00;75.90;;;;;;10446020;28;20128;-60
2022/11/17 09:29:10;;;;;;;3.63;1.30;;;15.90;75.90;;;;;;10460184;28;20411;-62
2022/11/17 09:34:11;;;;;;;5.25;0.82;;;15.90;75.90;;;;;;10445398;28;20069;-61
2022/11/17 09:39:12;;;;;;;4.20;0.82;;;15.90;75.90;;;;;;10442291;28;20116;-60
2022/11/17 09:44:40;;;;;;;2.47;0.80;;;15.90;75.90;;;;;;10444317;28;20086;-62
2022/11/17 09:50:15;;;;;;;2.50;0.85;;;15.80;75.90;;;;;;10443656;28;20036;-61
2022/11/17 09:55:39;;;;;;;3.03;0.68;;;15.80;75.90;;;;;;10446071;28;20036;-60
2022/11/17 10:00:42;;;;;;;3.13;1.05;;;15.80;75.90;;;;;;10445294;28;20021;-61
2022/11/17 10:05:43;;;;;;;3.78;0.73;;;15.70;76.00;;;;;;10444757;28;20077;-61
2022/11/17 10:10:50;;;;;;;2.97;0.88;;;15.70;76.00;;;;;;10447126;28;20043;-61
2022/11/17 10:16:13;;;;;;;2.85;0.75;;;15.70;76.00;;;;;;10436963;28;20032;-61
2022/11/17 10:21:13;;;;;;;1.98;0.50;;;15.60;76.00;;;;;;10454687;28;20048;-60
2022/11/17 10:26:15;;;;;;;1.30;0.52;;;15.70;76.10;;;;;;10452299;28;20112;-59
2022/11/17 10:31:18;;;;;;;2.33;0.73;;;15.60;76.10;;;;;;10440372;28;20029;-60
2022/11/17 10:36:27;;;;;;;2.25;1.15;;;15.60;75.90;;;;;;10452897;28;20091;-61
2022/11/17 10:41:44;;;;;;;3.80;0.60;;;15.70;75.70;;;;;;10452978;28;20079;-61
2022/11/17 10:46:57;;;;;;;2.35;0.60;;;15.80;75.50;;;;;;10452148;28;20065;-61
2022/11/17 10:52:10;;;;;;;4.38;0.73;;;15.80;75.40;;;;;;10452501;28;20543;-61
2022/11/17 10:57:22;;;;;;;3.13;0.80;;;15.70;75.30;;;;;;10451646;28;20024;-60
2022/11/17 11:02:33;;;;;;;1.20;0.40;;;15.70;75.40;;;;;;10451899;28;20048;-61
2022/11/17 11:07:34;;;;;;;2.55;0.60;;;15.80;75.20;;;;;;10451968;28;20025;-61
2022/11/17 11:13:05;;;;;;;1.73;0.60;;;15.80;75.00;;;;;;10451858;28;20020;-61
2022/11/17 11:18:15;;;;;;;1.95;0.40;;;15.80;75.00;;;;;;10449076;28;20033;-60
2022/11/17 11:23:34;;;;;;;2.17;0.47;;;15.80;75.10;;;;;;10433129;28;20014;-60
2022/11/17 11:29:02;;;;;;;2.00;0.45;;;15.80;75.10;;;;;;10452269;28;20459;-61
2022/11/17 11:34:28;;;;;;;2.28;0.95;;;15.70;75.10;;;;;;10451953;28;20048;-60
2022/11/17 11:39:28;;;;;;;1.20;0.43;;;15.70;75.10;;;;;;10452115;28;20092;-61
2022/11/17 11:44:53;;;;;;;1.45;0.52;;;15.80;75.10;;;;;;10450156;28;20598;-61
2022/11/17 11:50:11;;;;;;;1.10;0.32;;;15.80;75.10;;;;;;10451807;28;20116;-60
2022/11/17 11:55:26;;;;;;;0.85;0.30;;;15.70;75.00;;;;;;10453685;28;20415;-60
2022/11/17 12:00:26;;;;;;;1.27;0.43;;;15.70;75.00;;;;;;10449659;28;20024;-60
2022/11/17 12:05:52;;;;;;;0.98;0.38;;;15.70;75.00;;;;;;10433087;28;20025;-60
2022/11/17 12:16:38;;;;;;;1.75;0.35;;;15.90;74.40;;;;;;10449321;28;20025;-61
2022/11/17 12:21:40;;;;;;;1.17;0.52;;;16.00;73.90;;;;;;10432786;28;20021;-61
2022/11/17 12:26:41;;;;;;;0.80;0.40;;;16.10;73.70;;;;;;10449107;28;20021;-60
2022/11/17 12:31:43;;;;;;;1.05;0.22;;;16.10;73.70;;;;;;10448598;28;20017;-61
2022/11/17 12:37:17;;;;;;;1.30;0.50;;;16.00;73.80;;;;;;10431580;28;20040;-61
2022/11/17 12:42:17;;;;;;;0.68;0.40;;;16.00;73.90;;;;;;10448926;28;20131;-60
2022/11/17 12:47:21;;;;;;;2.20;0.40;;;15.90;74.00;;;;;;10446826;28;20028;-60
2022/11/17 12:52:33;;;;;;;4.07;0.40;;;15.90;74.10;;;;;;10447655;28;20092;-63
2022/11/17 12:57:35;;;;;;;1.17;0.40;;;15.90;74.40;;;;;;10447151;28;20087;-62
2022/11/17 13:03:23;;;;;;;4.30;0.60;;;15.90;74.50;;;;;;10446453;28;20025;-61
2022/11/17 13:08:24;;;;;;;1.83;0.45;;;15.90;74.60;;;;;;10406045;28;20033;-62
2022/11/17 13:13:25;;;;;;;1.92;0.55;;;15.90;74.50;;;;;;10445618;28;20017;-60
2022/11/17 13:18:38;;;;;;;1.08;0.30;;;15.80;74.60;;;;;;10446378;28;20143;-60
2022/11/17 13:23:43;;;;;;;1.13;0.30;;;15.80;74.70;;;;;;10429959;28;20033;-59
2022/11/17 13:28:44;;;;;;;1.55;0.30;;;15.70;74.80;;;;;;10446222;28;20020;-61
2022/11/17 13:34:11;;;;;;;0.88;0.40;;;15.70;74.90;;;;;;10446101;28;20075;-61
2022/11/17 13:39:16;;;;;;;1.67;0.88;;;15.70;75.00;;;;;;10459352;28;20028;-61
2022/11/17 13:44:24;;;;;;;2.20;0.50;;;15.60;75.00;;;;;;10446728;28;20108;-61
2022/11/17 13:49:36;;;;;;;0.60;0.30;;;15.60;75.10;;;;;;10441951;28;20033;-60
2022/11/17 13:54:43;;;;;;;1.67;0.40;;;15.80;74.80;;;;;;10444720;28;20079;-61
2022/11/17 13:59:45;;;;;;;3.33;0.50;;;15.90;74.30;;;;;;10445271;28;20024;-61
2022/11/17 14:05:08;;;;;;;2.15;0.43;;;15.90;74.20;;;;;;10445223;28;20659;-60
2022/11/17 14:10:21;;;;;;;1.10;0.40;;;15.80;74.30;;;;;;10446696;28;20074;-61
2022/11/17 14:15:25;;;;;;;1.85;0.30;;;15.80;74.40;;;;;;10445510;28;20100;-61
2022/11/17 14:20:34;;;;;;;0.57;0.30;;;15.80;74.50;;;;;;10444287;28;20025;-61
2022/11/17 14:25:42;;;;;;;3.13;0.30;;;15.70;74.60;;;;;;10445703;28;20025;-61
2022/11/17 14:30:46;;;;;;;1.00;0.40;;;15.70;74.70;;;;;;10444883;28;20020;-60
2022/11/17 14:35:58;;;;;;;0.63;0.20;;;15.70;74.60;;;;;;10444705;28;20099;-61
2022/11/17 14:40:59;;;;;;;2.40;0.40;;;15.70;74.60;;;;;;10444584;28;20033;-61
2022/11/17 14:46:00;;;;;;;2.50;0.50;;;15.80;74.40;;;;;;10444371;28;20554;-61
2022/11/17 14:51:00;;;;;;;0.63;0.38;;;15.90;74.10;;;;;;10445768;28;20064;-60
2022/11/17 14:56:08;;;;;;;0.80;0.30;;;15.90;74.10;;;;;;10446163;28;20109;-61
2022/11/17 15:01:15;;;;;;;1.60;0.20;;;15.80;74.20;;;;;;10451191;28;20113;-61
2022/11/17 15:06:16;;;;;;;1.25;0.38;;;15.80;74.20;;;;;;10435840;28;20422;-60
2022/11/17 15:11:17;;;;;;;0.60;0.30;;;15.80;74.40;;;;;;10451276;28;20021;-61
2022/11/17 15:16:18;;;;;;;0.95;0.30;;;15.80;74.40;;;;;;10434224;28;20021;-61
2022/11/17 15:21:19;;;;;;;0.57;0.22;;;15.70;74.50;;;;;;10452737;28;20053;-61
2022/11/17 15:26:22;;;;;;;0.88;0.55;;;15.70;74.40;;;;;;10452667;28;20079;-61
2022/11/17 15:31:23;;;;;;;0.95;0.25;;;15.80;74.40;;;;;;10450940;28;20020;-60
2022/11/17 15:36:24;;;;;;;1.30;0.30;;;15.90;73.80;;;;;;10450952;28;20041;-61
2022/11/17 15:41:24;;;;;;;0.82;0.30;;;16.00;73.70;;;;;;10450490;28;20357;-61
2022/11/17 15:46:25;;;;;;;0.65;0.35;;;16.00;73.60;;;;;;10446970;28;20500;-60
2022/11/17 15:51:27;;;;;;;0.95;0.30;;;15.90;73.70;;;;;;10450092;28;20009;-61
2022/11/17 15:56:35;;;;;;;0.40;0.30;;;15.90;73.90;;;;;;10448202;28;20053;-61
2022/11/17 16:01:38;;;;;;;1.23;0.30;;;15.80;74.00;;;;;;10450659;28;20885;-61
2022/11/17 16:06:40;;;;;;;0.90;0.35;;;15.80;74.10;;;;;;10449477;28;20465;-61
2022/11/17 16:11:41;;;;;;;1.33;0.43;;;15.80;74.30;;;;;;10432459;28;20017;-62
2022/11/17 16:16:44;;;;;;;1.42;0.40;;;15.80;74.00;;;;;;10448901;28;20033;-60
2022/11/17 16:21:45;;;;;;;0.73;0.30;;;15.80;73.90;;;;;;10448911;28;20329;-61
2022/11/17 16:26:46;;;;;;;1.92;0.20;;;15.80;74.40;;;;;;10423752;28;20032;-61
2022/11/17 16:31:47;;;;;;;0.98;0.30;;;15.80;74.00;;;;;;10432036;28;20050;-61
2022/11/17 16:36:47;;;;;;;1.17;0.50;;;15.80;74.10;;;;;;10449454;28;20055;-61
2022/11/17 16:41:50;;;;;;;1.15;0.20;;;15.70;74.20;;;;;;10448426;28;20017;-61
2022/11/17 16:46:50;;;;;;;1.52;0.25;;;15.80;74.10;;;;;;10431319;28;20698;-60
2022/11/17 16:51:55;;;;;;;0.32;0.30;;;15.80;74.00;;;;;;10431208;28;20025;-60
2022/11/17 16:56:55;;;;;;;1.65;0.30;;;15.90;73.50;;;;;;10430849;28;20439;-61
2022/11/17 17:01:56;;;;;;;1.48;0.30;;;16.00;73.20;;;;;;10450712;28;20035;-65
2022/11/17 17:06:57;;;;;;;6.75;0.80;;;16.00;73.10;;;;;;10452928;28;20063;-61
2022/11/17 17:11:57;;;;;;;8.50;1.02;;;16.10;72.90;;;;;;10452828;28;20033;-61
2022/11/17 17:16:58;;;;;;;8.35;1.40;;;16.00;73.10;;;;;;10449412;28;20044;-62
2022/11/17 17:21:59;;;;;;;6.40;1.10;;;16.00;73.60;;;;;;10444764;28;20076;-64
2022/11/17 17:26:59;;;;;;;7.43;1.25;;;16.10;73.20;;;;;;10448025;28;20082;-61
2022/11/17 17:32:00;;;;;;;2.75;0.85;;;16.20;72.80;;;;;;10447954;28;20021;-60
2022/11/17 17:37:01;;;;;;;7.90;1.55;;;16.40;72.10;;;;;;10445604;28;20033;-60
2022/11/17 17:42:02;;;;;;;5.82;1.67;;;16.60;72.50;;;;;;10427828;28;20040;-61
2022/11/17 17:47:02;;;;;;;10.13;2.22;;;16.80;73.50;;;;;;10447039;28;20033;-59
2022/11/17 17:52:04;;;;;;;19.13;3.55;;;16.80;73.30;;;;;;10445044;28;20397;-61
2022/11/17 17:57:05;;;;;;;12.15;1.77;;;16.80;73.50;;;;;;10445726;28;20009;-62
2022/11/17 18:02:05;;;;;;;9.90;2.33;;;16.70;73.50;;;;;;10445351;28;20515;-60
2022/11/17 18:07:06;;;;;;;12.00;2.13;;;16.70;73.80;;;;;;10444983;28;20043;-61
2022/11/17 18:12:07;;;;;;;11.40;1.70;;;16.60;74.20;;;;;;10445103;28;20065;-61
2022/11/17 18:17:07;;;;;;;9.30;1.80;;;16.50;74.10;;;;;;10447067;28;20060;-62
2022/11/17 18:22:08;;;;;;;6.65;1.50;;;16.30;74.10;;;;;;10446553;28;20475;-61
2022/11/17 18:27:09;;;;;;;8.93;1.77;;;16.30;74.40;;;;;;10431199;28;20108;-62
2022/11/17 18:32:09;;;;;;;7.43;1.70;;;16.20;74.40;;;;;;10465380;28;20053;-62
2022/11/17 18:37:10;;;;;;;6.70;1.70;;;16.10;74.50;;;;;;10456489;28;20714;-60
2022/11/17 18:42:11;;;;;;;15.00;1.90;;;16.10;74.40;;;;;;10456069;28;20040;-60
2022/11/17 18:47:12;;;;;;;7.57;1.65;;;16.00;74.50;;;;;;10456748;28;20079;-61
2022/11/17 18:52:13;;;;;;;4.70;1.50;;;16.00;74.70;;;;;;10438831;28;20032;-62
2022/11/17 18:57:14;;;;;;;6.03;1.30;;;16.00;74.80;;;;;;10454617;28;20013;-61
2022/11/17 19:02:14;;;;;;;5.50;1.15;;;16.00;74.80;;;;;;10454409;28;20036;-61
2022/11/17 19:07:15;;;;;;;6.53;1.52;;;15.90;74.80;;;;;;10489274;28;20108;-61
2022/11/17 19:12:17;;;;;;;4.60;1.60;;;15.90;74.80;;;;;;10454611;28;20021;-61
2022/11/17 19:17:18;;;;;;;6.18;1.60;;;15.80;74.80;;;;;;10455340;28;20021;-60
2022/11/17 19:22:19;;;;;;;4.38;1.35;;;15.90;75.10;;;;;;10454768;28;20048;-62
2022/11/17 19:27:20;;;;;;;4.95;1.70;;;15.90;75.70;;;;;;10453882;28;20020;-62
2022/11/17 19:32:21;;;;;;;6.85;1.30;;;15.80;75.50;;;;;;10469489;28;20025;-61
2022/11/17 19:37:22;;;;;;;5.20;1.23;;;15.80;75.40;;;;;;10451920;28;20083;-61
2022/11/17 19:42:22;;;;;;;5.47;1.20;;;15.80;75.50;;;;;;10454341;28;20453;-65
2022/11/17 19:47:23;;;;;;;5.78;1.20;;;15.80;75.50;;;;;;10450995;28;20066;-62
2022/11/17 19:52:25;;;;;;;3.42;1.60;;;15.70;75.40;;;;;;10453182;28;20113;-61
2022/11/17 19:57:26;;;;;;;3.92;1.00;;;15.80;75.40;;;;;;10453873;28;20543;-61
2022/11/17 20:02:26;;;;;;;4.47;1.50;;;15.80;75.20;;;;;;10451999;28;20033;-62
2022/11/17 20:07:27;;;;;;;8.55;2.42;;;15.80;75.00;;;;;;10448109;28;20435;-61
2022/11/17 20:12:28;;;;;;;5.78;1.02;;;15.90;75.60;;;;;;10465225;28;20041;-62
2022/11/17 20:17:28;;;;;;;3.65;0.80;;;16.00;75.40;;;;;;10447532;28;20098;-62
2022/11/17 20:22:30;;;;;;;2.97;0.95;;;16.00;75.20;;;;;;10429923;28;20075;-63
2022/11/17 20:27:31;;;;;;;3.17;1.10;;;16.00;75.60;;;;;;10447968;28;20437;-64
2022/11/17 20:32:34;;;;;;;4.15;0.90;;;16.00;75.60;;;;;;10446789;28;20068;-63
2022/11/17 20:37:34;;;;;;;2.80;0.80;;;16.00;75.60;;;;;;10444685;28;20041;-63
2022/11/17 20:42:35;;;;;;;3.25;1.25;;;16.10;75.60;;;;;;10448086;28;20043;-63
2022/11/17 20:47:36;;;;;;;3.33;1.10;;;15.90;75.10;;;;;;10448380;28;20052;-62
2022/11/17 20:52:38;;;;;;;2.60;0.90;;;15.80;75.40;;;;;;10446398;28;20029;-62
2022/11/17 20:57:39;;;;;;;2.20;0.80;;;15.80;75.50;;;;;;10444609;28;20686;-62
2022/11/17 21:02:39;;;;;;;4.20;1.10;;;15.70;75.70;;;;;;10445441;28;20103;-63
2022/11/17 21:07:40;;;;;;;4.15;1.58;;;15.70;75.80;;;;;;10444646;28;20593;-62
2022/11/17 21:12:41;;;;;;;3.88;1.08;;;15.60;75.80;;;;;;10443661;28;20116;-64
2022/11/17 21:23:01;;;;;;;2.17;0.93;;;15.80;75.00;;;;;;10447635;28;20033;-63
2022/11/17 21:28:02;;;;;;;3.40;1.05;;;15.80;74.70;;;;;;10447222;28;20021;-62
2022/11/17 21:33:02;;;;;;;2.67;0.68;;;15.80;74.70;;;;;;10447326;28;20023;-63
2022/11/17 21:38:03;;;;;;;1.20;0.70;;;15.80;74.80;;;;;;10446687;28;20024;-63
2022/11/17 21:43:04;;;;;;;2.72;0.73;;;15.80;74.80;;;;;;10447056;28;20112;-62
2022/11/17 21:48:05;;;;;;;2.00;0.70;;;15.80;74.40;;;;;;10445863;28;20102;-63
2022/11/17 21:53:05;;;;;;;3.00;0.73;;;15.90;74.40;;;;;;10445495;28;20024;-65
2022/11/17 21:58:06;;;;;;;2.08;0.70;;;15.80;74.40;;;;;;10447063;28;20028;-63
2022/11/17 22:03:07;;;;;;;1.67;0.70;;;15.90;74.40;;;;;;10428391;28;20616;-63
2022/11/17 22:08:07;;;;;;;1.70;0.85;;;16.00;73.90;;;;;;10445133;28;20059;-62
2022/11/17 22:13:08;;;;;;;1.33;0.65;;;16.10;73.70;;;;;;10445453;28;20037;-63
2022/11/17 22:18:09;;;;;;;2.28;0.55;;;16.00;73.70;;;;;;10445463;28;20095;-62
2022/11/17 22:23:09;;;;;;;1.63;0.65;;;16.00;73.70;;;;;;10428102;28;20488;-63
2022/11/17 22:28:10;;;;;;;3.45;0.70;;;16.00;73.70;;;;;;10446556;28;20072;-62
2022/11/17 22:33:11;;;;;;;2.25;0.70;;;16.00;73.90;;;;;;10444687;28;20028;-63
2022/11/17 22:38:13;;;;;;;1.38;0.60;;;15.90;74.00;;;;;;10444847;28;20113;-63
2022/11/17 22:43:14;;;;;;;1.23;0.75;;;15.90;74.20;;;;;;10444764;28;20033;-63
2022/11/17 22:48:15;;;;;;;1.42;0.63;;;15.80;74.20;;;;;;10428551;28;20024;-62
2022/11/17 22:53:15;;;;;;;1.52;0.90;;;15.80;74.30;;;;;;10445115;28;20063;-63
2022/11/17 22:58:16;;;;;;;2.42;0.73;;;15.90;74.00;;;;;;10445918;28;20218;-63
2022/11/17 23:03:17;;;;;;;3.40;1.00;;;16.00;73.70;;;;;;10443925;28;20048;-62
2022/11/17 23:08:17;;;;;;;2.28;1.00;;;16.10;73.40;;;;;;10444611;28;20025;-62
2022/11/17 23:13:18;;;;;;;1.83;0.60;;;16.10;73.20;;;;;;10431440;28;20048;-62
2022/11/17 23:18:19;;;;;;;2.85;0.70;;;16.10;73.40;;;;;;10433314;28;20120;-62
2022/11/17 23:23:19;;;;;;;2.13;0.60;;;16.00;73.40;;;;;;10452735;28;20120;-63
2022/11/17 23:28:20;;;;;;;2.30;1.33;;;16.00;73.60;;;;;;10451129;28;20476;-63
2022/11/17 23:33:20;;;;;;;2.25;0.70;;;15.90;73.70;;;;;;10433804;28;20087;-63
2022/11/17 23:38:21;;;;;;;1.58;0.70;;;15.80;73.90;;;;;;10452275;28;20045;-63
2022/11/17 23:43:22;;;;;;;1.50;0.60;;;15.80;74.00;;;;;;10451086;28;20120;-62
2022/11/17 23:48:23;;;;;;;1.20;0.60;;;15.80;74.10;;;;;;10451432;28;20489;-62
2022/11/17 23:53:23;;;;;;;2.08;0.80;;;15.90;73.70;;;;;;10451175;28;20096;-62
2022/11/17 23:58:25;;;;;;;3.42;1.00;;;16.00;73.40;;;;;;10464635;28;20021;-63
